PRDFF SBBP-SBBP
Flight info
| Callsign | PRDFF |
|---|---|
| Flight time | 0h 41m |
| Altitude | 5000 |
| Route | DCT |
| Aircraft | C152/L-S/C |
Departure
| Time | 2026-05-07 00:11 |
|---|---|
| Airport | Estadual Arthur Siqueira Airport (SBBP) |
Arrival
| Time | 2026-05-07 00:52 |
|---|---|
| Airport | Estadual Arthur Siqueira Airport (SBBP) |
| Time | Latitude | Longitude | Altitude | Speed | Heading |
|---|---|---|---|---|---|
| 2026-05-07 00:01 | -22.98322 | -46.53541 | 2917 ft | 0 kts | 325° |
| 2026-05-07 00:07 | -22.98313 | -46.53545 | 2916 ft | 0 kts | 30° |
| 2026-05-07 00:07 | -22.98286 | -46.53506 | 2917 ft | 7 kts | 52° |
| 2026-05-07 00:07 | -22.98306 | -46.53475 | 2917 ft | 11 kts | 146° |
| 2026-05-07 00:07 | -22.98354 | -46.53432 | 2918 ft | 3 kts | 85° |
| 2026-05-07 00:08 | -22.98351 | -46.53424 | 2918 ft | 0 kts | 53° |
| 2026-05-07 00:09 | -22.98345 | -46.53415 | 2918 ft | 3 kts | 53° |
| 2026-05-07 00:09 | -22.98321 | -46.53384 | 2918 ft | 7 kts | 32° |
| 2026-05-07 00:09 | -22.98297 | -46.53390 | 2918 ft | 0 kts | 326° |
| 2026-05-07 00:10 | -22.98176 | -46.53481 | 2914 ft | 48 kts | 324° |
| 2026-05-07 00:10 | -22.97805 | -46.53777 | 2961 ft | 73 kts | 324° |
| 2026-05-07 00:11 | -22.97441 | -46.54109 | 3147 ft | 67 kts | 323° |
| 2026-05-07 00:11 | -22.97066 | -46.54451 | 3253 ft | 73 kts | 323° |
| 2026-05-07 00:11 | -22.96656 | -46.54813 | 3384 ft | 76 kts | 327° |
| 2026-05-07 00:11 | -22.96238 | -46.55145 | 3539 ft | 74 kts | 327° |
| 2026-05-07 00:12 | -22.95799 | -46.55488 | 3683 ft | 77 kts | 328° |
| 2026-05-07 00:12 | -22.95340 | -46.55780 | 3868 ft | 73 kts | 335° |
| 2026-05-07 00:12 | -22.94893 | -46.56012 | 4048 ft | 70 kts | 341° |
| 2026-05-07 00:12 | -22.94439 | -46.56219 | 4196 ft | 72 kts | 341° |
| 2026-05-07 00:13 | -22.93960 | -46.56430 | 4338 ft | 74 kts | 342° |
| 2026-05-07 00:13 | -22.93477 | -46.56639 | 4493 ft | 74 kts | 342° |
| 2026-05-07 00:13 | -22.92991 | -46.56851 | 4617 ft | 77 kts | 341° |
| 2026-05-07 00:13 | -22.92485 | -46.57074 | 4741 ft | 78 kts | 343° |
| 2026-05-07 00:14 | -22.91978 | -46.57302 | 4876 ft | 78 kts | 342° |
| 2026-05-07 00:14 | -22.91486 | -46.57525 | 5027 ft | 75 kts | 341° |
| 2026-05-07 00:14 | -22.90979 | -46.57758 | 5065 ft | 86 kts | 342° |
| 2026-05-07 00:14 | -22.90397 | -46.57998 | 5035 ft | 89 kts | 351° |
| 2026-05-07 00:15 | -22.89769 | -46.58070 | 5035 ft | 90 kts | 3° |
| 2026-05-07 00:15 | -22.89140 | -46.58076 | 5035 ft | 89 kts | 5° |
| 2026-05-07 00:15 | -22.88522 | -46.58073 | 5050 ft | 86 kts | 3° |
| 2026-05-07 00:15 | -22.87928 | -46.58071 | 5071 ft | 85 kts | 5° |
| 2026-05-07 00:16 | -22.87319 | -46.58070 | 5057 ft | 88 kts | 5° |
| 2026-05-07 00:16 | -22.86698 | -46.58070 | 5060 ft | 89 kts | 3° |
| 2026-05-07 00:16 | -22.86074 | -46.58063 | 5059 ft | 86 kts | 9° |
| 2026-05-07 00:16 | -22.85575 | -46.57756 | 5057 ft | 83 kts | 54° |
| 2026-05-07 00:17 | -22.85439 | -46.57159 | 5064 ft | 83 kts | 89° |
| 2026-05-07 00:17 | -22.85514 | -46.56536 | 5065 ft | 83 kts | 94° |
| 2026-05-07 00:17 | -22.85591 | -46.55917 | 5072 ft | 82 kts | 81° |
| 2026-05-07 00:17 | -22.85290 | -46.55410 | 5079 ft | 83 kts | 33° |
| 2026-05-07 00:18 | -22.84718 | -46.55266 | 5068 ft | 87 kts | 9° |
| 2026-05-07 00:18 | -22.84108 | -46.55239 | 5066 ft | 86 kts | 6° |
| 2026-05-07 00:18 | -22.83509 | -46.55221 | 5078 ft | 86 kts | 4° |
| 2026-05-07 00:18 | -22.82892 | -46.55203 | 5064 ft | 88 kts | 5° |
| 2026-05-07 00:19 | -22.82277 | -46.55207 | 5077 ft | 89 kts | 352° |
| 2026-05-07 00:19 | -22.81768 | -46.55612 | 5079 ft | 96 kts | 304° |
| 2026-05-07 00:19 | -22.81661 | -46.56330 | 5074 ft | 100 kts | 259° |
| 2026-05-07 00:19 | -22.82035 | -46.56943 | 5066 ft | 99 kts | 211° |
| 2026-05-07 00:20 | -22.82674 | -46.57190 | 5076 ft | 96 kts | 186° |
| 2026-05-07 00:20 | -22.83346 | -46.57328 | 5056 ft | 97 kts | 184° |
| 2026-05-07 00:20 | -22.83971 | -46.57620 | 5051 ft | 100 kts | 220° |
| 2026-05-07 00:20 | -22.84295 | -46.58272 | 5064 ft | 100 kts | 260° |
| 2026-05-07 00:21 | -22.84179 | -46.58999 | 5052 ft | 96 kts | 303° |
| 2026-05-07 00:21 | -22.83699 | -46.59437 | 5063 ft | 89 kts | 345° |
| 2026-05-07 00:21 | -22.83113 | -46.59409 | 5054 ft | 83 kts | 30° |
| 2026-05-07 00:21 | -22.82750 | -46.58947 | 5070 ft | 82 kts | 71° |
| 2026-05-07 00:22 | -22.82818 | -46.58331 | 5059 ft | 87 kts | 114° |
| 2026-05-07 00:22 | -22.83301 | -46.57921 | 5051 ft | 94 kts | 156° |
| 2026-05-07 00:22 | -22.83972 | -46.57920 | 5066 ft | 97 kts | 181° |
| 2026-05-07 00:22 | -22.84641 | -46.58044 | 5065 ft | 98 kts | 186° |
| 2026-05-07 00:23 | -22.85313 | -46.58224 | 5045 ft | 100 kts | 203° |
| 2026-05-07 00:23 | -22.85780 | -46.58775 | 5042 ft | 100 kts | 246° |
| 2026-05-07 00:23 | -22.85825 | -46.59498 | 5034 ft | 95 kts | 290° |
| 2026-05-07 00:23 | -22.85462 | -46.60049 | 5046 ft | 91 kts | 330° |
| 2026-05-07 00:24 | -22.84859 | -46.60230 | 5051 ft | 88 kts | 2° |
| 2026-05-07 00:24 | -22.84247 | -46.60220 | 5055 ft | 88 kts | 7° |
| 2026-05-07 00:24 | -22.83631 | -46.60193 | 5052 ft | 88 kts | 6° |
| 2026-05-07 00:24 | -22.83020 | -46.60162 | 5061 ft | 87 kts | 7° |
| 2026-05-07 00:25 | -22.82401 | -46.60130 | 5069 ft | 87 kts | 7° |
| 2026-05-07 00:25 | -22.81788 | -46.60100 | 5061 ft | 88 kts | 6° |
| 2026-05-07 00:25 | -22.81176 | -46.60068 | 5071 ft | 88 kts | 6° |
| 2026-05-07 00:25 | -22.80562 | -46.60038 | 5076 ft | 88 kts | 6° |
| 2026-05-07 00:26 | -22.79934 | -46.60002 | 5077 ft | 89 kts | 6° |
| 2026-05-07 00:26 | -22.79304 | -46.59968 | 5077 ft | 89 kts | 6° |
| 2026-05-07 00:26 | -22.78679 | -46.59937 | 5072 ft | 89 kts | 7° |
| 2026-05-07 00:26 | -22.78061 | -46.59907 | 5072 ft | 89 kts | 6° |
| 2026-05-07 00:27 | -22.77474 | -46.60133 | 5069 ft | 95 kts | 323° |
| 2026-05-07 00:27 | -22.77198 | -46.60793 | 5079 ft | 100 kts | 274° |
| 2026-05-07 00:27 | -22.77415 | -46.61502 | 5077 ft | 101 kts | 228° |
| 2026-05-07 00:27 | -22.78008 | -46.61866 | 5078 ft | 97 kts | 182° |
| 2026-05-07 00:28 | -22.78631 | -46.61689 | 5078 ft | 90 kts | 134° |
| 2026-05-07 00:28 | -22.78931 | -46.61133 | 5080 ft | 85 kts | 101° |
| 2026-05-07 00:28 | -22.79066 | -46.60502 | 5067 ft | 86 kts | 96° |
| 2026-05-07 00:28 | -22.79181 | -46.59866 | 5065 ft | 85 kts | 96° |
| 2026-05-07 00:29 | -22.79295 | -46.59231 | 5069 ft | 85 kts | 96° |
| 2026-05-07 00:29 | -22.79407 | -46.58593 | 5075 ft | 86 kts | 96° |
| 2026-05-07 00:30 | -22.80262 | -46.57009 | 5056 ft | 93 kts | 165° |
| 2026-05-07 00:30 | -22.80933 | -46.57158 | 5052 ft | 104 kts | 205° |
| 2026-05-07 00:30 | -22.81399 | -46.57757 | 5056 ft | 103 kts | 250° |
| 2026-05-07 00:30 | -22.81421 | -46.58505 | 5060 ft | 99 kts | 291° |
| 2026-05-07 00:31 | -22.81020 | -46.59068 | 5059 ft | 91 kts | 337° |
| 2026-05-07 00:31 | -22.80426 | -46.59204 | 5066 ft | 86 kts | 2° |
| 2026-05-07 00:31 | -22.79822 | -46.59209 | 5075 ft | 86 kts | 4° |
| 2026-05-07 00:31 | -22.79211 | -46.59199 | 5112 ft | 88 kts | 5° |
| 2026-05-07 00:32 | -22.78619 | -46.59181 | 5315 ft | 80 kts | 4° |
| 2026-05-07 00:32 | -22.78077 | -46.59172 | 5511 ft | 74 kts | 5° |
| 2026-05-07 00:32 | -22.77576 | -46.59170 | 5649 ft | 71 kts | 3° |
| 2026-05-07 00:32 | -22.77050 | -46.59166 | 5686 ft | 83 kts | 4° |
| 2026-05-07 00:33 | -22.76435 | -46.59149 | 5672 ft | 83 kts | 7° |
| 2026-05-07 00:33 | -22.76020 | -46.59169 | 5585 ft | 72 kts | 36° |
| 2026-05-07 00:33 | -22.75429 | -46.59124 | 5496 ft | 89 kts | 3° |
| 2026-05-07 00:33 | -22.74766 | -46.59106 | 5446 ft | 91 kts | 8° |
| 2026-05-07 00:34 | -22.74200 | -46.59315 | 5442 ft | 88 kts | 322° |
| 2026-05-07 00:34 | -22.73928 | -46.59958 | 5465 ft | 101 kts | 281° |
| 2026-05-07 00:34 | -22.73866 | -46.60719 | 5435 ft | 100 kts | 275° |
| 2026-05-07 00:34 | -22.73823 | -46.61466 | 5433 ft | 99 kts | 276° |
| 2026-05-07 00:35 | -22.73782 | -46.62226 | 5436 ft | 102 kts | 275° |
| 2026-05-07 00:35 | -22.73779 | -46.62994 | 5441 ft | 104 kts | 257° |
| 2026-05-07 00:35 | -22.74194 | -46.63628 | 5455 ft | 104 kts | 210° |
| 2026-05-07 00:35 | -22.74876 | -46.63872 | 5454 ft | 103 kts | 187° |
| 2026-05-07 00:36 | -22.75574 | -46.64010 | 5448 ft | 100 kts | 185° |
| 2026-05-07 00:36 | -22.76257 | -46.64146 | 5447 ft | 98 kts | 186° |
| 2026-05-07 00:36 | -22.76928 | -46.64294 | 5446 ft | 98 kts | 185° |
| 2026-05-07 00:36 | -22.77530 | -46.64672 | 5443 ft | 103 kts | 231° |
| 2026-05-07 00:37 | -22.77753 | -46.65399 | 5441 ft | 102 kts | 276° |
| 2026-05-07 00:37 | -22.77463 | -46.66072 | 5431 ft | 96 kts | 325° |
| 2026-05-07 00:37 | -22.76880 | -46.66296 | 5436 ft | 87 kts | 11° |
| 2026-05-07 00:37 | -22.76374 | -46.65982 | 5435 ft | 83 kts | 57° |
| 2026-05-07 00:38 | -22.76300 | -46.65373 | 5448 ft | 87 kts | 103° |
| 2026-05-07 00:38 | -22.76719 | -46.64876 | 5442 ft | 95 kts | 150° |
| 2026-05-07 00:38 | -22.77393 | -46.64828 | 5427 ft | 99 kts | 183° |
| 2026-05-07 00:38 | -22.78077 | -46.64973 | 5432 ft | 98 kts | 187° |
| 2026-05-07 00:39 | -22.78744 | -46.65133 | 5434 ft | 97 kts | 187° |
| 2026-05-07 00:39 | -22.79403 | -46.65292 | 5431 ft | 97 kts | 187° |
| 2026-05-07 00:39 | -22.80077 | -46.65459 | 5421 ft | 98 kts | 187° |
| 2026-05-07 00:39 | -22.80743 | -46.65667 | 5423 ft | 101 kts | 206° |
| 2026-05-07 00:40 | -22.81183 | -46.66271 | 5431 ft | 103 kts | 255° |
| 2026-05-07 00:40 | -22.81129 | -46.67023 | 5426 ft | 100 kts | 302° |
| 2026-05-07 00:40 | -22.80643 | -46.67490 | 5425 ft | 92 kts | 348° |
| 2026-05-07 00:40 | -22.80042 | -46.67419 | 5429 ft | 85 kts | 36° |
| 2026-05-07 00:41 | -22.79737 | -46.66901 | 5424 ft | 84 kts | 83° |
| 2026-05-07 00:41 | -22.79800 | -46.66259 | 5426 ft | 86 kts | 99° |
| 2026-05-07 00:41 | -22.79931 | -46.65612 | 5427 ft | 88 kts | 100° |
| 2026-05-07 00:41 | -22.80070 | -46.64966 | 5420 ft | 88 kts | 99° |
| 2026-05-07 00:42 | -22.80229 | -46.64320 | 5431 ft | 90 kts | 112° |
| 2026-05-07 00:42 | -22.80652 | -46.63789 | 5437 ft | 94 kts | 131° |
| 2026-05-07 00:42 | -22.81142 | -46.63310 | 5434 ft | 93 kts | 133° |
| 2026-05-07 00:42 | -22.81641 | -46.62876 | 5428 ft | 91 kts | 138° |
| 2026-05-07 00:43 | -22.82170 | -46.62516 | 5415 ft | 87 kts | 144° |
| 2026-05-07 00:43 | -22.82726 | -46.62177 | 5277 ft | 93 kts | 147° |
| 2026-05-07 00:43 | -22.83279 | -46.61820 | 5124 ft | 90 kts | 142° |
| 2026-05-07 00:43 | -22.83806 | -46.61465 | 4950 ft | 87 kts | 143° |
| 2026-05-07 00:44 | -22.84328 | -46.61115 | 4787 ft | 88 kts | 143° |
| 2026-05-07 00:44 | -22.84854 | -46.60756 | 4638 ft | 90 kts | 144° |
| 2026-05-07 00:44 | -22.85382 | -46.60392 | 4475 ft | 88 kts | 144° |
| 2026-05-07 00:44 | -22.85899 | -46.60039 | 4311 ft | 87 kts | 142° |
| 2026-05-07 00:45 | -22.86419 | -46.59688 | 4153 ft | 89 kts | 143° |
| 2026-05-07 00:45 | -22.86947 | -46.59327 | 4056 ft | 86 kts | 143° |
| 2026-05-07 00:45 | -22.87458 | -46.58979 | 4073 ft | 90 kts | 141° |
| 2026-05-07 00:45 | -22.87999 | -46.58613 | 4053 ft | 88 kts | 141° |
| 2026-05-07 00:46 | -22.88541 | -46.58246 | 4066 ft | 92 kts | 142° |
| 2026-05-07 00:46 | -22.89078 | -46.57881 | 4056 ft | 90 kts | 143° |
| 2026-05-07 00:46 | -22.89614 | -46.57524 | 4060 ft | 89 kts | 145° |
| 2026-05-07 00:46 | -22.90189 | -46.57252 | 4061 ft | 88 kts | 154° |
| 2026-05-07 00:47 | -22.90773 | -46.57039 | 4069 ft | 91 kts | 158° |
| 2026-05-07 00:47 | -22.91409 | -46.56837 | 4071 ft | 98 kts | 160° |
| 2026-05-07 00:47 | -22.92073 | -46.56623 | 4053 ft | 97 kts | 159° |
| 2026-05-07 00:47 | -22.92685 | -46.56399 | 4056 ft | 87 kts | 145° |
| 2026-05-07 00:48 | -22.93169 | -46.55986 | 4060 ft | 91 kts | 134° |
| 2026-05-07 00:48 | -22.93666 | -46.55517 | 4061 ft | 95 kts | 135° |
| 2026-05-07 00:48 | -22.94168 | -46.55063 | 4053 ft | 92 kts | 136° |
| 2026-05-07 00:48 | -22.94663 | -46.54630 | 4050 ft | 89 kts | 139° |
| 2026-05-07 00:49 | -22.95155 | -46.54216 | 4050 ft | 88 kts | 137° |
| 2026-05-07 00:49 | -22.95651 | -46.53814 | 4058 ft | 89 kts | 137° |
| 2026-05-07 00:49 | -22.96150 | -46.53404 | 4050 ft | 90 kts | 137° |
| 2026-05-07 00:49 | -22.96649 | -46.52989 | 4047 ft | 88 kts | 137° |
| 2026-05-07 00:50 | -22.97137 | -46.52587 | 4053 ft | 86 kts | 138° |
| 2026-05-07 00:50 | -22.97612 | -46.52198 | 4046 ft | 83 kts | 138° |
| 2026-05-07 00:50 | -22.98062 | -46.51834 | 3923 ft | 78 kts | 141° |
| 2026-05-07 00:50 | -22.98481 | -46.51516 | 3752 ft | 74 kts | 153° |
| 2026-05-07 00:51 | -22.99014 | -46.51525 | 3601 ft | 80 kts | 200° |
| 2026-05-07 00:51 | -22.99439 | -46.51908 | 3520 ft | 80 kts | 226° |
| 2026-05-07 00:51 | -22.99669 | -46.52461 | 3445 ft | 80 kts | 280° |
| 2026-05-07 00:51 | -22.99289 | -46.52801 | 3334 ft | 76 kts | 347° |
| 2026-05-07 00:52 | -22.98820 | -46.53023 | 3205 ft | 75 kts | 335° |
| 2026-05-07 00:52 | -22.98362 | -46.53341 | 3009 ft | 78 kts | 333° |
| 2026-05-07 00:52 | -22.97958 | -46.53653 | 2909 ft | 61 kts | 330° |
| 2026-05-07 00:52 | -22.97775 | -46.53782 | 2902 ft | 5 kts | 305° |
| 2026-05-07 00:53 | -22.97780 | -46.53788 | 2902 ft | 5 kts | 158° |
| 2026-05-07 00:53 | -22.97813 | -46.53804 | 2902 ft | 11 kts | 235° |
| 2026-05-07 00:53 | -22.97855 | -46.53833 | 2902 ft | 7 kts | 146° |
| 2026-05-07 00:53 | -22.97904 | -46.53795 | 2904 ft | 9 kts | 144° |
| 2026-05-07 00:54 | -22.97955 | -46.53754 | 2906 ft | 8 kts | 144° |
| 2026-05-07 00:54 | -22.98004 | -46.53717 | 2908 ft | 8 kts | 144° |
| 2026-05-07 00:54 | -22.98051 | -46.53681 | 2910 ft | 8 kts | 145° |
| 2026-05-07 00:54 | -22.98098 | -46.53639 | 2911 ft | 9 kts | 135° |
| 2026-05-07 00:55 | -22.98155 | -46.53588 | 2913 ft | 11 kts | 141° |
| 2026-05-07 00:55 | -22.98203 | -46.53583 | 2914 ft | 8 kts | 237° |
| 2026-05-07 00:55 | -22.98241 | -46.53642 | 2914 ft | 10 kts | 234° |
| 2026-05-07 00:55 | -22.98242 | -46.53664 | 2914 ft | 2 kts | 330° |
| 2026-05-07 00:56 | -22.98234 | -46.53668 | 2914 ft | 0 kts | 13° |
| 2026-05-07 00:56 | -22.98231 | -46.53663 | 2914 ft | 3 kts | 65° |
| 2026-05-07 00:56 | -22.98228 | -46.53658 | 2914 ft | 0 kts | 57° |